< Cyclone 202123 2022 Season
Cyclone 202207 (Ruby)
General InformationTrack Information on Google MapsList of All Images || ResourceGoogle EarthGE AnimationAtom FeedGeoJSON
Detalied Best Track (Time Zone = UTC)
Year Month Day Hour Lat. Long. Pressure (hPa) Wind (kt) Class Image Chart
2021 12 9 00 -8.9 155.0 1006 20 2 Image --
2021 12 9 06 -9.0 155.2 1007 20 2 Image --
2021 12 9 12 -9.2 155.3 1005 25 2 Image --
2021 12 9 18 -9.3 155.3 1004 25 2 Image --
2021 12 10 00 -9.6 155.4 1002 25 2 Image --
2021 12 10 06 -9.7 155.6 1002 25 2 Image --
2021 12 10 12 -9.9 155.6 1002 25 2 Image --
2021 12 10 18 -10.2 155.7 1001 25 2 Image --
2021 12 11 00 -10.2 156.1 1002 30 2 Image --
2021 12 11 06 -10.8 156.4 998 30 2 Image --
2021 12 11 12 -11.5 156.5 998 30 2 Image --
2021 12 11 18 -12.8 156.9 997 30 2 Image --
2021 12 12 00 -14.0 157.3 997 35 3 Image --
2021 12 12 06 -14.6 157.7 995 40 3 Image --
2021 12 12 12 -15.4 158.0 995 45 3 Image --
2021 12 12 15 -15.8 158.4 991 50 4 Image --
2021 12 12 18 -16.3 158.8 988 50 4 Image --
2021 12 13 00 -17.3 159.7 982 60 4 Image --
2021 12 13 06 -18.3 161.2 980 60 4 Image --
2021 12 13 12 -19.2 162.4 975 60 4 Image --
2021 12 13 18 -19.9 163.8 978 60 4 Image --
2021 12 14 00 -21.2 165.4 981 55 4 Image --
2021 12 14 04 -21.8 166.6 980 55 0 Image --
2021 12 14 06 -22.0 167.1 979 55 4 Image --
2021 12 14 12 -23.2 169.3 985 50 4 Image --
2021 12 15 00 -25.1 172.0 983 50 4 Image --
2021 12 15 06 -26.7 174.6 987 45 3 Image --
2021 12 15 12 -28.4 176.6 987 45 3 Image --
< Cyclone 202123 2022 Season

Help